createdAt,value
2022-08-27T00:02:17.264Z,99.90
2022-08-27T00:04:46.451Z,99.90
2022-08-27T00:07:15.312Z,99.90
2022-08-27T00:09:44.075Z,99.90
2022-08-27T00:12:12.958Z,99.90
2022-08-27T00:14:42.852Z,99.90
2022-08-27T00:17:11.510Z,99.90
2022-08-27T00:19:40.260Z,99.90
2022-08-27T00:22:09.755Z,99.90
2022-08-27T00:24:38.551Z,99.90
2022-08-27T00:27:18.068Z,99.90
2022-08-27T00:29:48.244Z,99.90
2022-08-27T00:32:17.481Z,99.90
2022-08-27T00:34:46.006Z,99.90
2022-08-27T00:37:14.951Z,99.90
2022-08-27T00:39:43.461Z,99.90
2022-08-27T00:42:12.071Z,99.90
2022-08-27T00:44:40.602Z,99.90
2022-08-27T00:47:14.301Z,99.90
2022-08-27T00:49:46.727Z,99.90
2022-08-27T00:52:18.602Z,99.90
2022-08-27T00:54:47.394Z,99.90
2022-08-27T00:57:16.870Z,99.90
2022-08-27T00:59:45.552Z,99.90
2022-08-27T01:02:21.518Z,99.90
2022-08-27T01:04:52.743Z,99.90
2022-08-27T01:07:23.151Z,99.90
2022-08-27T01:09:54.057Z,99.90
2022-08-27T01:12:22.797Z,99.90
2022-08-27T01:14:53.191Z,99.90
2022-08-27T01:17:24.387Z,99.90
2022-08-27T01:19:55.750Z,99.90
2022-08-27T01:22:32.508Z,99.90
2022-08-27T01:25:06.571Z,99.90
2022-08-27T01:27:35.368Z,99.90
2022-08-27T01:30:05.554Z,99.90
2022-08-27T01:32:35.885Z,99.90
2022-08-27T01:35:06.178Z,99.90
2022-08-27T01:37:34.983Z,99.90
2022-08-27T01:40:06.432Z,99.90
2022-08-27T01:42:37.868Z,99.90
2022-08-27T01:45:09.037Z,99.90
2022-08-27T01:47:38.878Z,99.90
2022-08-27T01:50:09.531Z,99.90
2022-08-27T01:52:38.234Z,99.90
2022-08-27T01:55:11.390Z,99.90
2022-08-27T01:57:40.170Z,99.90
2022-08-27T02:00:12.045Z,99.90
2022-08-27T02:02:40.858Z,99.90
2022-08-27T02:05:10.472Z,99.90
2022-08-27T02:07:39.058Z,99.90
2022-08-27T02:10:11.966Z,99.90
2022-08-27T02:12:40.451Z,99.90
2022-08-27T02:15:09.650Z,99.90
2022-08-27T02:17:38.626Z,99.90
2022-08-27T02:20:10.916Z,99.90
2022-08-27T02:22:39.655Z,99.90
2022-08-27T02:25:12.280Z,99.90
2022-08-27T02:27:41.414Z,99.90
2022-08-27T02:30:11.651Z,99.90
2022-08-27T02:32:40.172Z,99.90
2022-08-27T02:35:09.882Z,99.90
2022-08-27T02:37:38.619Z,99.90
2022-08-27T02:40:11.136Z,99.90
2022-08-27T02:42:40.181Z,99.90
2022-08-27T02:45:09.311Z,99.90
2022-08-27T02:47:37.877Z,99.90
2022-08-27T02:50:07.125Z,99.90
2022-08-27T02:52:35.984Z,99.90
2022-08-27T02:55:05.593Z,99.90
2022-08-27T02:57:36.934Z,99.90
2022-08-27T03:00:07.702Z,99.90
2022-08-27T03:02:37.364Z,99.90
2022-08-27T03:05:07.050Z,99.90
2022-08-27T03:07:35.538Z,99.90
2022-08-27T03:10:04.982Z,99.90
2022-08-27T03:12:33.478Z,99.90
2022-08-27T03:15:03.670Z,99.90
2022-08-27T03:17:49.500Z,99.90
2022-08-27T03:20:18.902Z,99.90
2022-08-27T03:22:47.842Z,99.90
2022-08-27T03:25:16.361Z,99.90
2022-08-27T03:27:45.070Z,99.90
2022-08-27T03:30:17.463Z,99.90
2022-08-27T03:32:46.458Z,99.90
2022-08-27T03:35:15.923Z,99.90
2022-08-27T03:37:45.268Z,99.90
2022-08-27T03:40:14.172Z,99.90
2022-08-27T03:42:43.474Z,99.90
2022-08-27T03:45:13.968Z,99.90
2022-08-27T03:47:43.016Z,99.90
2022-08-27T03:50:12.172Z,99.90
2022-08-27T03:52:40.696Z,99.90
2022-08-27T03:55:10.564Z,99.90
2022-08-27T03:57:40.917Z,99.90
2022-08-27T04:00:11.718Z,99.90
2022-08-27T04:02:42.283Z,99.90
2022-08-27T04:05:12.212Z,99.90
2022-08-27T04:07:41.691Z,99.90
2022-08-27T04:10:11.798Z,99.90
2022-08-27T04:12:40.529Z,99.90
2022-08-27T04:15:10.869Z,99.90
2022-08-27T04:17:39.495Z,99.90
2022-08-27T04:20:34.086Z,99.90
2022-08-27T04:22:59.995Z,99.90
2022-08-27T04:25:28.565Z,99.90
2022-08-27T04:27:57.054Z,99.90
2022-08-27T04:30:25.528Z,99.90
2022-08-27T04:32:54.422Z,99.90
2022-08-27T04:35:24.361Z,99.90
2022-08-27T04:37:52.951Z,99.90
2022-08-27T04:40:21.553Z,99.90
2022-08-27T04:42:50.726Z,99.90
2022-08-27T04:45:19.345Z,99.90
2022-08-27T04:47:47.911Z,99.90
2022-08-27T04:50:16.562Z,99.90
2022-08-27T04:52:46.655Z,99.90
2022-08-27T04:55:16.478Z,99.90
2022-08-27T04:57:45.151Z,99.90
2022-08-27T05:00:14.958Z,99.90
2022-08-27T05:02:43.506Z,99.90
2022-08-27T05:05:15.942Z,99.90
2022-08-27T05:07:46.163Z,99.90
2022-08-27T05:10:14.751Z,99.90
2022-08-27T05:12:43.195Z,99.90
2022-08-27T05:15:12.818Z,99.90
2022-08-27T05:17:41.312Z,99.90
2022-08-27T05:20:11.551Z,99.90
2022-08-27T05:22:43.895Z,99.90
2022-08-27T05:25:13.994Z,99.90
2022-08-27T05:27:42.856Z,99.90
2022-08-27T05:30:13.092Z,99.90
2022-08-27T05:32:41.608Z,99.90
2022-08-27T05:35:14.011Z,99.90
2022-08-27T05:37:44.158Z,99.90
2022-08-27T05:40:14.305Z,99.90
2022-08-27T05:42:46.553Z,99.90
2022-08-27T05:45:19.770Z,99.90
2022-08-27T05:47:48.168Z,99.90
2022-08-27T05:50:20.722Z,99.90
2022-08-27T05:52:52.047Z,99.90
2022-08-27T05:55:21.888Z,99.90
2022-08-27T05:57:51.095Z,99.90
2022-08-27T06:00:37.477Z,99.90
2022-08-27T06:03:05.970Z,99.90
2022-08-27T06:05:34.512Z,99.90
2022-08-27T06:08:03.056Z,99.90
2022-08-27T06:10:33.483Z,99.90
2022-08-27T06:13:03.457Z,99.90
2022-08-27T06:15:32.011Z,99.90
2022-08-27T06:18:00.576Z,99.90
2022-08-27T06:20:29.143Z,99.90
2022-08-27T06:22:57.644Z,99.90
2022-08-27T06:25:26.462Z,99.90
2022-08-27T06:27:56.956Z,99.90
2022-08-27T06:30:25.439Z,99.70
2022-08-27T06:32:56.338Z,99.40
2022-08-27T06:35:24.874Z,99.60
2022-08-27T06:37:53.443Z,99.00
2022-08-27T06:40:22.635Z,98.50
2022-08-27T06:42:51.398Z,98.50
2022-08-27T06:45:21.193Z,97.90
2022-08-27T06:47:49.695Z,97.70
2022-08-27T06:50:22.324Z,97.50
2022-08-27T06:52:54.027Z,97.60
2022-08-27T06:55:22.535Z,97.50
2022-08-27T06:57:51.002Z,97.50
2022-08-27T07:00:21.017Z,98.40
2022-08-27T07:02:49.648Z,98.90
2022-08-27T07:05:19.114Z,99.10
2022-08-27T07:07:48.872Z,99.30
2022-08-27T07:10:17.524Z,99.20
2022-08-27T07:12:45.981Z,99.10
2022-08-27T07:15:14.564Z,98.70
2022-08-27T07:17:45.547Z,98.80
2022-08-27T07:20:14.803Z,98.60
2022-08-27T07:22:44.923Z,98.80
2022-08-27T07:25:19.201Z,98.70
2022-08-27T07:27:48.190Z,98.80
2022-08-27T07:30:17.826Z,98.30
2022-08-27T07:32:48.442Z,98.20
2022-08-27T07:35:16.926Z,98.00
2022-08-27T07:37:45.459Z,98.00
2022-08-27T07:40:16.100Z,97.60
2022-08-27T07:43:02.306Z,97.50
2022-08-27T07:45:31.446Z,97.20
2022-08-27T07:48:01.335Z,96.80
2022-08-27T07:50:29.827Z,96.90
2022-08-27T07:52:58.265Z,97.20
2022-08-27T07:55:26.955Z,96.90
2022-08-27T07:57:55.506Z,96.70
2022-08-27T08:00:23.961Z,97.20
2022-08-27T08:02:52.494Z,96.70
2022-08-27T08:05:22.691Z,96.50
2022-08-27T08:07:52.686Z,95.90
2022-08-27T08:10:22.493Z,95.80
2022-08-27T08:12:51.671Z,95.20
2022-08-27T08:15:20.985Z,96.00
2022-08-27T08:17:49.497Z,97.10
2022-08-27T08:20:27.526Z,97.70
2022-08-27T08:23:09.751Z,98.10
2022-08-27T08:25:39.030Z,98.40
2022-08-27T08:28:07.581Z,98.50
2022-08-27T08:30:36.601Z,99.20
2022-08-27T08:33:05.168Z,99.60
2022-08-27T08:35:40.474Z,99.90
2022-08-27T08:38:11.770Z,99.90
2022-08-27T08:40:42.786Z,99.90
2022-08-27T08:43:20.535Z,99.90
2022-08-27T08:45:49.746Z,99.90
2022-08-27T08:48:22.062Z,99.90
2022-08-27T08:50:57.077Z,99.90
2022-08-27T08:53:36.463Z,99.90
2022-08-27T08:56:08.821Z,99.90
2022-08-27T08:58:44.070Z,99.90
2022-08-27T09:01:12.903Z,99.90
2022-08-27T09:03:42.339Z,99.90
2022-08-27T09:06:19.958Z,99.90
2022-08-27T09:08:49.941Z,99.90
2022-08-27T09:11:23.018Z,99.90
2022-08-27T09:13:53.686Z,99.90
2022-08-27T09:16:23.178Z,99.90
2022-08-27T09:18:52.602Z,99.90
2022-08-27T09:21:28.308Z,99.90
2022-08-27T09:24:06.142Z,99.90
2022-08-27T09:26:38.686Z,99.90
2022-08-27T09:29:22.852Z,99.90
2022-08-27T09:31:56.670Z,99.90
2022-08-27T09:34:27.482Z,99.90
2022-08-27T09:37:00.871Z,99.90
2022-08-27T09:39:47.134Z,99.90
2022-08-27T09:42:27.455Z,99.90
2022-08-27T09:44:55.997Z,99.90
2022-08-27T09:47:25.223Z,99.90
2022-08-27T09:50:08.377Z,99.90
2022-08-27T09:52:39.374Z,99.90
2022-08-27T09:55:10.106Z,99.90
2022-08-27T09:57:41.350Z,99.90
2022-08-27T10:00:16.133Z,99.90
2022-08-27T10:02:52.793Z,99.90
2022-08-27T10:05:27.914Z,99.90
2022-08-27T10:08:00.886Z,99.90
2022-08-27T10:10:40.788Z,99.90
2022-08-27T10:13:14.263Z,99.90
2022-08-27T10:15:50.647Z,99.90
2022-08-27T10:18:26.312Z,99.90
2022-08-27T10:21:05.984Z,99.90
2022-08-27T10:23:41.955Z,99.90
2022-08-27T10:26:16.870Z,99.90
2022-08-27T10:28:56.563Z,99.90
2022-08-27T10:31:32.809Z,99.90
2022-08-27T10:34:13.187Z,99.90
2022-08-27T10:36:47.729Z,99.90
2022-08-27T10:39:23.777Z,99.90
2022-08-27T10:42:00.919Z,99.90
2022-08-27T10:44:43.045Z,99.90
2022-08-27T10:47:29.376Z,99.90
2022-08-27T10:50:05.095Z,99.90
2022-08-27T10:52:38.753Z,99.90
2022-08-27T10:55:12.852Z,99.90
2022-08-27T10:58:25.235Z,99.90
2022-08-27T11:01:00.631Z,99.90
2022-08-27T11:03:33.383Z,99.90
2022-08-27T11:06:05.394Z,99.90
2022-08-27T11:08:45.048Z,99.90
2022-08-27T11:12:03.177Z,99.90
2022-08-27T11:14:20.387Z,99.90
2022-08-27T11:16:51.689Z,99.90
2022-08-27T11:19:26.291Z,99.90
2022-08-27T11:22:05.362Z,99.90
2022-08-27T11:24:40.293Z,99.90
2022-08-27T11:27:10.335Z,99.90
2022-08-27T11:29:47.632Z,99.90
2022-08-27T11:32:23.261Z,99.90
2022-08-27T11:34:55.980Z,99.90
2022-08-27T11:37:52.058Z,99.20
2022-08-27T11:40:41.730Z,99.10
2022-08-27T11:43:14.438Z,98.70
2022-08-27T11:45:56.047Z,97.80
2022-08-27T11:48:26.115Z,97.20
2022-08-27T11:50:57.625Z,97.40
2022-08-27T11:53:29.371Z,96.70
2022-08-27T11:55:58.281Z,97.20
2022-08-27T11:58:33.862Z,96.50
2022-08-27T12:01:28.878Z,97.00
2022-08-27T12:04:06.330Z,98.20
2022-08-27T12:06:42.997Z,96.90
2022-08-27T12:09:17.361Z,97.70
2022-08-27T12:11:56.598Z,98.30
2022-08-27T12:14:37.555Z,96.00
2022-08-27T12:17:13.515Z,95.10
2022-08-27T12:19:52.565Z,94.70
2022-08-27T12:22:59.109Z,94.10
2022-08-27T12:25:27.734Z,93.90
2022-08-27T12:27:58.686Z,94.70
2022-08-27T12:30:31.745Z,94.70
2022-08-27T12:33:10.316Z,93.90
2022-08-27T12:35:44.476Z,93.10
2022-08-27T12:38:17.186Z,92.50
2022-08-27T12:40:50.587Z,92.80
2022-08-27T12:43:21.622Z,94.70
2022-08-27T12:45:52.376Z,96.30
2022-08-27T12:48:27.150Z,95.00
2022-08-27T12:50:57.611Z,93.50
2022-08-27T12:53:43.671Z,95.40
2022-08-27T12:56:32.995Z,95.40
2022-08-27T12:59:11.593Z,93.90
2022-08-27T13:01:50.090Z,92.10
2022-08-27T13:04:24.508Z,92.50
2022-08-27T13:06:53.321Z,93.80
2022-08-27T13:09:28.656Z,91.30
2022-08-27T13:11:59.545Z,92.10
2022-08-27T13:14:35.590Z,94.10
2022-08-27T13:17:06.030Z,93.80
2022-08-27T13:19:37.282Z,93.60
2022-08-27T13:22:07.258Z,93.60
2022-08-27T13:24:37.605Z,92.60
2022-08-27T13:27:07.158Z,91.20
2022-08-27T13:29:35.993Z,91.30
2022-08-27T13:32:04.958Z,92.20
2022-08-27T13:34:37.512Z,93.20
2022-08-27T13:37:08.046Z,91.00
2022-08-27T13:39:38.115Z,89.30
2022-08-27T13:42:08.969Z,91.70
2022-08-27T13:44:39.018Z,91.10
2022-08-27T13:47:10.184Z,90.00
2022-08-27T13:49:41.915Z,89.70
2022-08-27T13:52:17.775Z,89.80
2022-08-27T13:54:47.152Z,91.00
2022-08-27T13:57:25.467Z,91.40
2022-08-27T13:59:54.214Z,91.20
2022-08-27T14:02:28.007Z,91.10
2022-08-27T14:05:11.352Z,91.40
2022-08-27T14:07:43.243Z,91.40
2022-08-27T14:10:32.459Z,91.80
2022-08-27T14:13:04.920Z,92.20
2022-08-27T14:15:36.112Z,92.50
2022-08-27T14:18:07.067Z,92.60
2022-08-27T14:20:37.747Z,92.80
2022-08-27T14:23:06.391Z,92.90
2022-08-27T14:25:35.191Z,95.60
2022-08-27T14:28:04.194Z,97.10
2022-08-27T14:30:32.690Z,97.30
2022-08-27T14:33:02.447Z,99.00
2022-08-27T14:35:33.393Z,99.90
2022-08-27T14:38:12.131Z,99.80
2022-08-27T14:40:40.940Z,96.30
2022-08-27T14:43:09.692Z,96.00
2022-08-27T14:45:39.253Z,96.00
2022-08-27T14:48:18.212Z,96.00
2022-08-27T14:50:47.248Z,96.20
2022-08-27T14:53:19.789Z,96.10
2022-08-27T14:55:51.545Z,96.00
2022-08-27T14:58:20.766Z,96.40
2022-08-27T15:00:49.548Z,97.20
2022-08-27T15:03:19.857Z,98.40
2022-08-27T15:05:48.392Z,99.80
2022-08-27T15:08:18.931Z,99.90
2022-08-27T15:10:47.800Z,99.90
2022-08-27T15:13:16.449Z,99.90
2022-08-27T15:15:45.048Z,99.90
2022-08-27T15:18:13.606Z,99.90
2022-08-27T15:20:42.586Z,99.90
2022-08-27T15:23:12.437Z,99.90
2022-08-27T15:25:43.209Z,99.90
2022-08-27T15:28:12.110Z,99.90
2022-08-27T15:30:41.166Z,99.90
2022-08-27T15:33:09.677Z,99.90
2022-08-27T15:35:38.317Z,99.90
2022-08-27T15:38:06.832Z,99.90
2022-08-27T15:40:36.778Z,99.90
2022-08-27T15:43:08.770Z,99.90
2022-08-27T15:45:37.470Z,99.90
2022-08-27T15:48:06.152Z,99.90
2022-08-27T15:50:35.285Z,99.90
2022-08-27T15:53:06.420Z,99.90
2022-08-27T15:55:37.655Z,99.90
2022-08-27T15:58:08.892Z,99.90
2022-08-27T16:00:38.702Z,99.90
2022-08-27T16:03:11.317Z,99.90
2022-08-27T16:05:43.667Z,99.90
2022-08-27T16:08:12.484Z,99.90
2022-08-27T16:10:41.208Z,99.90
2022-08-27T16:13:11.198Z,99.90
2022-08-27T16:15:41.777Z,99.90
2022-08-27T16:18:11.297Z,99.90
2022-08-27T16:20:41.437Z,99.90
2022-08-27T16:23:10.136Z,99.90
2022-08-27T16:25:38.648Z,99.90
2022-08-27T16:28:07.678Z,99.90
2022-08-27T16:30:38.150Z,99.90
2022-08-27T16:33:06.748Z,99.90
2022-08-27T16:35:35.735Z,99.90
2022-08-27T16:38:04.495Z,99.90
2022-08-27T16:40:35.435Z,99.90
2022-08-27T16:43:04.549Z,99.90
2022-08-27T16:45:33.290Z,99.90
2022-08-27T16:48:22.882Z,99.90
2022-08-27T16:50:51.562Z,99.90
2022-08-27T16:53:22.575Z,99.90
2022-08-27T16:55:51.874Z,99.90
2022-08-27T16:58:22.135Z,99.90
2022-08-27T17:00:52.327Z,99.90
2022-08-27T17:03:23.880Z,99.90
2022-08-27T17:05:53.000Z,99.90
2022-08-27T17:08:26.672Z,99.90
2022-08-27T17:10:56.929Z,99.90
2022-08-27T17:13:29.008Z,99.90
2022-08-27T17:15:58.033Z,99.90
2022-08-27T17:18:29.138Z,99.90
2022-08-27T17:20:58.518Z,99.90
2022-08-27T17:23:32.105Z,99.90
2022-08-27T17:26:00.916Z,99.90
2022-08-27T17:28:29.558Z,99.90
2022-08-27T17:30:58.885Z,99.90
2022-08-27T17:33:31.895Z,99.90
2022-08-27T17:36:00.462Z,99.90
2022-08-27T17:38:30.324Z,99.90
2022-08-27T17:40:59.618Z,99.90
2022-08-27T17:43:28.220Z,99.90
2022-08-27T17:45:57.668Z,99.90
2022-08-27T17:48:26.928Z,99.90
2022-08-27T17:50:57.050Z,99.90
2022-08-27T17:53:25.616Z,99.90
2022-08-27T17:55:54.194Z,99.90
2022-08-27T17:58:22.931Z,99.90
2022-08-27T18:00:52.083Z,99.90
2022-08-27T18:03:21.163Z,99.90
2022-08-27T18:05:50.077Z,99.90
2022-08-27T18:08:20.601Z,99.90
2022-08-27T18:10:49.205Z,99.90
2022-08-27T18:13:18.547Z,99.90
2022-08-27T18:15:47.522Z,99.90
2022-08-27T18:18:16.409Z,99.90
2022-08-27T18:20:44.901Z,99.90
2022-08-27T18:23:14.642Z,99.90
2022-08-27T18:25:45.959Z,99.90
2022-08-27T18:28:15.386Z,99.90
2022-08-27T18:30:45.066Z,99.90
2022-08-27T18:33:14.415Z,99.90
2022-08-27T18:35:43.558Z,99.90
2022-08-27T18:38:12.225Z,99.90
2022-08-27T18:40:42.558Z,99.90
2022-08-27T18:43:12.521Z,99.90
2022-08-27T18:45:41.357Z,99.90
2022-08-27T18:48:14.288Z,99.90
2022-08-27T18:50:45.398Z,99.90
2022-08-27T18:53:16.269Z,99.90
2022-08-27T18:55:45.397Z,99.90
2022-08-27T18:58:15.471Z,99.90
2022-08-27T19:00:46.556Z,99.90
2022-08-27T19:03:16.691Z,99.90
2022-08-27T19:05:45.133Z,99.90
2022-08-27T19:08:18.048Z,99.90
2022-08-27T19:10:48.727Z,99.90
2022-08-27T19:13:18.954Z,99.90
2022-08-27T19:15:50.300Z,99.90
2022-08-27T19:18:19.406Z,99.90
2022-08-27T19:20:48.050Z,99.90
2022-08-27T19:23:16.642Z,99.90
2022-08-27T19:25:51.155Z,99.90
2022-08-27T19:28:24.510Z,99.90
2022-08-27T19:30:53.193Z,99.90
2022-08-27T19:36:03.040Z,99.90
2022-08-27T19:38:32.686Z,99.90
2022-08-27T19:41:01.848Z,99.90
2022-08-27T19:43:31.139Z,99.90
2022-08-27T19:46:00.799Z,99.90
2022-08-27T19:48:29.634Z,99.90
2022-08-27T19:50:58.468Z,99.90
2022-08-27T19:53:28.466Z,99.90
2022-08-27T19:55:57.134Z,99.90
2022-08-27T19:58:26.041Z,99.90
2022-08-27T20:00:55.082Z,99.90
2022-08-27T20:03:23.637Z,99.90
2022-08-27T20:05:53.372Z,99.90
2022-08-27T20:08:21.897Z,99.90
2022-08-27T20:10:51.998Z,99.90
2022-08-27T20:13:20.506Z,99.90
2022-08-27T20:15:49.146Z,99.90
2022-08-27T20:18:19.258Z,99.90
2022-08-27T20:20:48.118Z,99.90
2022-08-27T20:23:16.815Z,99.90
2022-08-27T20:25:45.641Z,99.90
2022-08-27T20:28:38.321Z,99.90
2022-08-27T20:31:04.458Z,99.90
2022-08-27T20:33:33.039Z,99.90
2022-08-27T20:36:02.614Z,99.90
2022-08-27T20:38:31.163Z,99.90
2022-08-27T20:40:59.718Z,99.90
2022-08-27T20:43:30.311Z,99.90
2022-08-27T20:45:59.005Z,99.90
2022-08-27T20:48:28.326Z,99.90
2022-08-27T20:50:57.105Z,99.90
2022-08-27T20:53:25.985Z,99.90
2022-08-27T20:55:56.530Z,99.90
2022-08-27T20:58:46.134Z,99.90
2022-08-27T21:01:16.130Z,99.90
2022-08-27T21:03:44.862Z,99.90
2022-08-27T21:06:13.972Z,99.90
2022-08-27T21:08:42.649Z,99.90
2022-08-27T21:11:13.022Z,99.90
2022-08-27T21:13:55.205Z,99.90
2022-08-27T21:16:26.221Z,99.90
2022-08-27T21:18:55.722Z,99.90
2022-08-27T21:21:24.396Z,99.90
2022-08-27T21:23:53.045Z,99.90
2022-08-27T21:26:23.016Z,99.90
2022-08-27T21:28:55.897Z,99.90
2022-08-27T21:31:26.312Z,99.90
2022-08-27T21:33:54.920Z,99.90
2022-08-27T21:36:23.620Z,99.90
2022-08-27T21:38:52.289Z,99.90
2022-08-27T21:41:21.076Z,99.90
2022-08-27T21:43:49.864Z,99.90
2022-08-27T21:46:19.615Z,99.90
2022-08-27T21:48:58.537Z,99.90
2022-08-27T21:51:28.078Z,99.90
2022-08-27T21:54:05.836Z,99.90
2022-08-27T21:56:35.035Z,99.90
2022-08-27T21:59:03.711Z,99.90
2022-08-27T22:01:32.284Z,99.90
2022-08-27T22:04:02.203Z,99.90
2022-08-27T22:06:30.808Z,99.90
2022-08-27T22:08:59.351Z,99.90
2022-08-27T22:11:30.638Z,99.90
2022-08-27T22:13:59.769Z,99.90
2022-08-27T22:16:29.134Z,99.90
2022-08-27T22:18:57.829Z,99.90
2022-08-27T22:21:28.054Z,99.90
2022-08-27T22:23:56.558Z,99.90
2022-08-27T22:26:25.017Z,99.90
2022-08-27T22:28:53.694Z,99.90
2022-08-27T22:31:23.514Z,99.90
2022-08-27T22:33:52.456Z,99.90
2022-08-27T22:36:20.999Z,99.90
2022-08-27T22:38:50.866Z,99.90
2022-08-27T22:41:19.726Z,99.90
2022-08-27T22:43:50.478Z,99.90
2022-08-27T22:46:25.188Z,99.90
2022-08-27T22:48:53.769Z,99.90
2022-08-27T22:51:22.322Z,99.90
2022-08-27T22:53:52.395Z,99.90
2022-08-27T22:56:21.012Z,99.90
2022-08-27T22:58:49.483Z,99.90
2022-08-27T23:01:20.518Z,99.90
2022-08-27T23:03:49.245Z,99.90
2022-08-27T23:06:18.015Z,99.90
2022-08-27T23:08:47.079Z,99.90
2022-08-27T23:11:17.439Z,99.90
2022-08-27T23:13:46.036Z,99.90
2022-08-27T23:16:15.667Z,99.90
2022-08-27T23:18:45.704Z,99.90
2022-08-27T23:21:14.181Z,99.90
2022-08-27T23:23:42.755Z,99.90
2022-08-27T23:26:28.745Z,99.90
2022-08-27T23:28:58.626Z,99.90
2022-08-27T23:31:27.526Z,99.90
2022-08-27T23:33:57.261Z,99.90
2022-08-27T23:36:26.227Z,99.90
2022-08-27T23:38:54.709Z,99.90
2022-08-27T23:41:23.568Z,99.90
2022-08-27T23:43:52.189Z,99.90
2022-08-27T23:46:22.190Z,99.90
2022-08-27T23:48:50.742Z,99.90
2022-08-27T23:51:19.203Z,99.90
2022-08-27T23:53:48.431Z,99.90
2022-08-27T23:56:16.961Z,99.90
2022-08-27T23:58:46.042Z,99.90
